logo
Rechercher aéroport 
image banner adimage banner adimage banner ad
image banner ad

YHUNT - Hunter Island

Situé à , Australia

ICAO - , IATA -

Données fournies par Airmate  

Information générale

Coordonnées: S40°31'21" E144°44'30"
Élévation : 98 feet MSL.
Variation magnétique : 13° East
Voir autres Aéroports à Tasmania

Données opérationnelles

Special qualification required
Heure actuelle UTC:
Heure actuelle locale:
Météo à : - ( 0 km )
METAR: PAOU 242012Z AUTO 29006KT 1 3/4SM BR OVC004 06/06 A3004 RMK AO2 PNO $
Voir NOTAMs / SUP AIP / TFR affectant cet aéroport [VIEW]
Fréquences de communication: [VIEW]

Pistes:

Identifiant RWYQFULongueur (ft)Largeur (ft)SurfaceLDA (ft)
26272°122169GRAS
0892°122169GRAS
18190°188592GRAS
3610°188592GRAS

Coordonnées de l'aéroport

Adresse: Australia

Vue satellite de YHUNT